Akademic — LZDA — position and weather

sailwx.info

Track history (hours):
 
Tides and Currents Weather Stations Pressure Air Temp Water Temp Dewpoint Dewpoint Depression Visibility Wind Speed Wind Dir Waves Ship Positions

Oceanographic research ship Akademic (Bulgaria)

Detailed information on ship capabilities available from University of Delaware's Ocean Information Center.

Last reported at 2019-Sep-06 09:10 UTC. Time now 2019-Sep-20 10:15 UTC.
Position N 43°25' E 028°52'.
Warning: this ship's position is 14 days out of date.

Length 55 m; draft 4.8 m.

Type: Other ship. MMSI: 207038000.

Date/timePositionNaut miles runAvg speedWind from/ knotsBaromVisibWave heightAir tempDewpointWater temp
2019-Sep-06 09:10N 43°25' E 028°52'13 3.3
2019-Sep-06 05:08N 43°38' E 028°49'9 4.7
2019-Sep-06 03:06N 43°36' E 028°36'0 0.1
2019-Sep-06 02:41N 43°36' E 028°36'0 0.0
2019-Sep-06 01:28N 43°36' E 028°36'0 0.0
2019-Sep-06 00:23N 43°36' E 028°36'3 0.4
2019-Sep-05 15:50N 43°38' E 028°39'1 2.0
2019-Sep-05 15:29N 43°38' E 028°40'8 0.2
2019-Sep-04 04:34N 43°35' E 028°50'0 1.3
2019-Sep-04 04:28N 43°35' E 028°50'1 1.3
2019-Sep-04 03:59N 43°36' E 028°51'1 1.0
2019-Sep-04 03:21N 43°36' E 028°51'0 0.8
2019-Sep-04 03:00N 43°36' E 028°51'0 0.7
2019-Sep-04 02:30N 43°37' E 028°51'0 0.5
2019-Sep-04 02:00N 43°37' E 028°51'0 0.4
2019-Sep-04 01:30N 43°37' E 028°51'0 0.3
2019-Sep-04 01:00N 43°37' E 028°51'0 0.3
2019-Sep-04 00:30N 43°37' E 028°51'0 0.4
2019-Sep-04 00:00N 43°38' E 028°51'0 0.3
2019-Sep-03 23:31N 43°38' E 028°51'2 4.6
2019-Sep-03 23:00N 43°38' E 028°54'3 5.8
2019-Sep-03 22:30N 43°38' E 028°58'3 5.8
2019-Sep-03 22:00N 43°37' E 029°02'3 5.8
2019-Sep-03 21:31N 43°37' E 029°06'3 5.7
2019-Sep-03 21:00N 43°37' E 029°10'3 5.6
2019-Sep-03 20:30N 43°37' E 029°14'3 5.7
2019-Sep-03 20:00N 43°37' E 029°18'2 3.4
2019-Sep-03 19:30N 43°37' E 029°20'0 0.1
2019-Sep-03 19:00N 43°37' E 029°20'3 5.2
2019-Sep-03 18:30N 43°34' E 029°18'3 5.9
2019-Sep-03 18:00N 43°32' E 029°16'1 2.2
2019-Sep-03 17:30N 43°31' E 029°16'0 0.2
2019-Sep-03 17:00N 43°31' E 029°15'3 5.1
2019-Sep-03 16:30N 43°31' E 029°12'3 5.4
2019-Sep-03 16:00N 43°31' E 029°08'0 0.2
2019-Sep-03 15:30N 43°31' E 029°08'1 2.6
2019-Sep-03 15:00N 43°31' E 029°07'3 5.4
2019-Sep-03 14:30N 43°31' E 029°03'1 2.7
2019-Sep-03 14:00N 43°31' E 029°01'0 0.3
2019-Sep-03 13:30N 43°31' E 029°01'3 5.3
2019-Sep-03 13:00N 43°28' E 029°01'3 5.2
2019-Sep-03 12:30N 43°25' E 029°01'2 3.4
2019-Sep-03 12:00N 43°24' E 029°01'0 0.4
2019-Sep-03 11:30N 43°24' E 029°01'2 4.2
2019-Sep-03 11:00N 43°22' E 028°60'3 5.3
2019-Sep-03 10:30N 43°19' E 028°59'2 3.2
2019-Sep-03 09:52N 43°17' E 028°58'0 0.4
2019-Sep-03 09:30N 43°17' E 028°58'1 1.6
2019-Sep-03 09:00N 43°17' E 028°57'3 5.2
2019-Sep-03 08:30N 43°18' E 028°53'2 4.7
2019-Sep-03 08:00N 43°18' E 028°50'0 0.8
2019-Sep-03 07:31N 43°18' E 028°51'1 1.9
2019-Sep-03 07:00N 43°17' E 028°50'3 5.0
2019-Sep-03 06:31N 43°17' E 028°47'1 2.3
2019-Sep-03 06:01N 43°17' E 028°45'0 0.6
2019-Sep-03 05:30N 43°17' E 028°46'2 4.7
2019-Sep-03 05:00N 43°17' E 028°42'1 2.9
2019-Sep-03 04:30N 43°17' E 028°40'0 0.3
2019-Sep-03 04:01N 43°17' E 028°41'2 4.0
2019-Sep-03 03:31N 43°18' E 028°38'2 4.5
2019-Sep-03 03:01N 43°19' E 028°35'2 4.5
2019-Sep-03 02:30N 43°20' E 028°32'2 4.5
2019-Sep-03 02:00N 43°20' E 028°29'3 5.0
2019-Sep-03 01:30N 43°21' E 028°26'2 3.7
2019-Sep-03 00:59N 43°22' E 028°23'0 0.2
2019-Sep-03 00:29N 43°22' E 028°24'0 0.0
2019-Sep-02 23:56N 43°22' E 028°24'0 0.0
2019-Sep-02 23:29N 43°22' E 028°24'0 0.0
2019-Sep-02 21:53N 43°22' E 028°24'0 0.0
2019-Sep-02 21:29N 43°22' E 028°24'0 0.0
2019-Sep-02 20:20N 43°22' E 028°24'0 0.0
2019-Sep-02 18:53N 43°22' E 028°24'0 0.0
2019-Sep-02 18:29N 43°22' E 028°24'0 0.0
2019-Sep-02 17:58N 43°22' E 028°24'0 0.0
2019-Sep-02 16:29N 43°22' E 028°24'6 3.8
2019-Sep-02 14:48N 43°17' E 028°29'0 1.0
2019-Sep-02 14:24N 43°17' E 028°30'4 2.6
2019-Sep-02 12:50N 43°18' E 028°35'1 2.6
2019-Sep-02 12:30N 43°17' E 028°34'2 3.9
2019-Sep-02 12:00N 43°16' E 028°32'7 1.3
2019-Sep-02 06:37N 43°10' E 028°29'1 5.8
2019-Sep-02 06:30N 43°10' E 028°30'3 5.6
2019-Sep-02 06:00N 43°09' E 028°34'1 1.1
2019-Sep-02 05:30N 43°10' E 028°34'1 3.0
2019-Sep-02 05:00N 43°10' E 028°36'2 3.2
2019-Sep-02 04:30N 43°09' E 028°38'0 0.9
2019-Sep-02 04:00N 43°10' E 028°38'2 3.3
2019-Sep-02 03:31N 43°10' E 028°36'2 4.3
2019-Sep-02 03:00N 43°09' E 028°33'2 4.1
2019-Sep-02 02:30N 43°09' E 028°30'0 0.9
2019-Sep-02 02:00N 43°09' E 028°30'1 1.4
2019-Sep-02 01:30N 43°10' E 028°31'1 1.3
2019-Sep-02 01:00N 43°10' E 028°32'1 1.2
2019-Sep-02 00:30N 43°10' E 028°32'1 1.2
2019-Sep-02 00:00N 43°11' E 028°33'1 1.2
2019-Sep-01 23:30N 43°11' E 028°34'1 1.2
2019-Sep-01 22:53N 43°12' E 028°35'0 1.2
2019-Sep-01 22:30N 43°12' E 028°35'1 1.2
2019-Sep-01 22:00N 43°12' E 028°36'1 1.2
2019-Sep-01 21:30N 43°13' E 028°36'1 1.2
2019-Sep-01 21:00N 43°13' E 028°37'1 2.4
2019-Sep-01 20:25N 43°13' E 028°35'2 3.8
2019-Sep-01 20:00N 43°12' E 028°33'2 3.8
2019-Sep-01 19:30N 43°11' E 028°31'2 3.9
2019-Sep-01 19:00N 43°10' E 028°29'2 3.9
2019-Sep-01 18:30N 43°09' E 028°27'2 3.9
2019-Sep-01 18:00N 43°08' E 028°25'2 3.8
2019-Sep-01 17:31N 43°07' E 028°22'2 3.7
2019-Sep-01 17:00N 43°06' E 028°20'2 3.5
2019-Sep-01 16:30N 43°05' E 028°18'2 3.8
2019-Sep-01 16:00N 43°05' E 028°15'2 3.3
2019-Sep-01 15:30N 43°05' E 028°13'11 2.3
2019-Sep-01 10:44N 43°03' E 028°28'19 2.5
2019-Sep-01 03:17N 42°49' E 028°11'13 3.7
2019-Aug-31 23:46N 42°40' E 027°58'1 4.2
2019-Aug-31 23:30N 42°39' E 027°58'24 0.5
2019-Aug-29 21:05N 42°17' E 027°48'0 0.0
2019-Aug-29 20:56N 42°17' E 027°48'0 0.0
2019-Aug-29 19:26N 42°17' E 027°48'24 1.1
2019-Aug-28 20:45N 42°19' E 028°20'0 1.1
2019-Aug-28 20:22N 42°19' E 028°21'0 1.1
2019-Aug-28 19:58N 42°20' E 028°21'4 1.8
2019-Aug-28 17:58N 42°16' E 028°20'0 0.8
2019-Aug-28 17:30N 42°17' E 028°20'1 1.0
2019-Aug-28 17:00N 42°17' E 028°20'2 4.1
2019-Aug-28 16:30N 42°17' E 028°17'19 1.5
2019-Aug-28 03:43N 42°17' E 027°51'1 3.7
2019-Aug-28 03:30N 42°17' E 027°50'2 0.3
2019-Aug-27 20:11N 42°17' E 027°47'0 0.0
2019-Aug-27 19:59N 42°17' E 027°47'0 0.0
2019-Aug-27 19:26N 42°17' E 027°47'0 0.0
2019-Aug-27 18:59N 42°17' E 027°47'0 0.0
2019-Aug-27 18:29N 42°17' E 027°47'0 0.0
2019-Aug-27 17:56N 42°17' E 027°47'0 0.0
2019-Aug-27 17:29N 42°17' E 027°47'  
Track history (hours):
 
Tides and Currents Weather Stations Pressure Air Temp Water Temp Dewpoint Dewpoint Depression Visibility Wind Speed Wind Dir Waves Ship Positions

Oceanographic research ship Akademic (Bulgaria)

Detailed information on ship capabilities available from University of Delaware's Ocean Information Center.

Last reported at 2019-Sep-06 09:10 UTC. Time now 2019-Sep-20 10:15 UTC.
Position N 43°25' E 028°52'.
Warning: this ship's position is 14 days out of date.

Length 55 m; draft 4.8 m.

Type: Other ship. MMSI: 207038000.

Date/timePositionNaut miles runAvg speedWind from/ knotsBaromVisibWave heightAir tempDewpointWater temp
2019-Sep-06 09:10N 43°25' E 028°52'13 3.3
2019-Sep-06 05:08N 43°38' E 028°49'9 4.7
2019-Sep-06 03:06N 43°36' E 028°36'0 0.1
2019-Sep-06 02:41N 43°36' E 028°36'0 0.0
2019-Sep-06 01:28N 43°36' E 028°36'0 0.0
2019-Sep-06 00:23N 43°36' E 028°36'3 0.4
2019-Sep-05 15:50N 43°38' E 028°39'1 2.0
2019-Sep-05 15:29N 43°38' E 028°40'8 0.2
2019-Sep-04 04:34N 43°35' E 028°50'0 1.3
2019-Sep-04 04:28N 43°35' E 028°50'1 1.3
2019-Sep-04 03:59N 43°36' E 028°51'1 1.0
2019-Sep-04 03:21N 43°36' E 028°51'0 0.8
2019-Sep-04 03:00N 43°36' E 028°51'0 0.7
2019-Sep-04 02:30N 43°37' E 028°51'0 0.5
2019-Sep-04 02:00N 43°37' E 028°51'0 0.4
2019-Sep-04 01:30N 43°37' E 028°51'0 0.3
2019-Sep-04 01:00N 43°37' E 028°51'0 0.3
2019-Sep-04 00:30N 43°37' E 028°51'0 0.4
2019-Sep-04 00:00N 43°38' E 028°51'0 0.3
2019-Sep-03 23:31N 43°38' E 028°51'2 4.6
2019-Sep-03 23:00N 43°38' E 028°54'3 5.8
2019-Sep-03 22:30N 43°38' E 028°58'3 5.8
2019-Sep-03 22:00N 43°37' E 029°02'3 5.8
2019-Sep-03 21:31N 43°37' E 029°06'3 5.7
2019-Sep-03 21:00N 43°37' E 029°10'3 5.6
2019-Sep-03 20:30N 43°37' E 029°14'3 5.7
2019-Sep-03 20:00N 43°37' E 029°18'2 3.4
2019-Sep-03 19:30N 43°37' E 029°20'0 0.1
2019-Sep-03 19:00N 43°37' E 029°20'3 5.2
2019-Sep-03 18:30N 43°34' E 029°18'3 5.9
2019-Sep-03 18:00N 43°32' E 029°16'1 2.2
2019-Sep-03 17:30N 43°31' E 029°16'0 0.2
2019-Sep-03 17:00N 43°31' E 029°15'3 5.1
2019-Sep-03 16:30N 43°31' E 029°12'3 5.4
2019-Sep-03 16:00N 43°31' E 029°08'0 0.2
2019-Sep-03 15:30N 43°31' E 029°08'1 2.6
2019-Sep-03 15:00N 43°31' E 029°07'3 5.4
2019-Sep-03 14:30N 43°31' E 029°03'1 2.7
2019-Sep-03 14:00N 43°31' E 029°01'0 0.3
2019-Sep-03 13:30N 43°31' E 029°01'3 5.3
2019-Sep-03 13:00N 43°28' E 029°01'3 5.2
2019-Sep-03 12:30N 43°25' E 029°01'2 3.4
2019-Sep-03 12:00N 43°24' E 029°01'0 0.4
2019-Sep-03 11:30N 43°24' E 029°01'2 4.2
2019-Sep-03 11:00N 43°22' E 028°60'3 5.3
2019-Sep-03 10:30N 43°19' E 028°59'2 3.2
2019-Sep-03 09:52N 43°17' E 028°58'0 0.4
2019-Sep-03 09:30N 43°17' E 028°58'1 1.6
2019-Sep-03 09:00N 43°17' E 028°57'3 5.2
2019-Sep-03 08:30N 43°18' E 028°53'2 4.7
2019-Sep-03 08:00N 43°18' E 028°50'0 0.8
2019-Sep-03 07:31N 43°18' E 028°51'1 1.9
2019-Sep-03 07:00N 43°17' E 028°50'3 5.0
2019-Sep-03 06:31N 43°17' E 028°47'1 2.3
2019-Sep-03 06:01N 43°17' E 028°45'0 0.6
2019-Sep-03 05:30N 43°17' E 028°46'2 4.7
2019-Sep-03 05:00N 43°17' E 028°42'1 2.9
2019-Sep-03 04:30N 43°17' E 028°40'0 0.3
2019-Sep-03 04:01N 43°17' E 028°41'2 4.0
2019-Sep-03 03:31N 43°18' E 028°38'2 4.5
2019-Sep-03 03:01N 43°19' E 028°35'2 4.5
2019-Sep-03 02:30N 43°20' E 028°32'2 4.5
2019-Sep-03 02:00N 43°20' E 028°29'3 5.0
2019-Sep-03 01:30N 43°21' E 028°26'2 3.7
2019-Sep-03 00:59N 43°22' E 028°23'0 0.2
2019-Sep-03 00:29N 43°22' E 028°24'0 0.0
2019-Sep-02 23:56N 43°22' E 028°24'0 0.0
2019-Sep-02 23:29N 43°22' E 028°24'0 0.0
2019-Sep-02 21:53N 43°22' E 028°24'0 0.0
2019-Sep-02 21:29N 43°22' E 028°24'0 0.0
2019-Sep-02 20:20N 43°22' E 028°24'0 0.0
2019-Sep-02 18:53N 43°22' E 028°24'0 0.0
2019-Sep-02 18:29N 43°22' E 028°24'0 0.0
2019-Sep-02 17:58N 43°22' E 028°24'0 0.0
2019-Sep-02 16:29N 43°22' E 028°24'6 3.8
2019-Sep-02 14:48N 43°17' E 028°29'0 1.0
2019-Sep-02 14:24N 43°17' E 028°30'4 2.6
2019-Sep-02 12:50N 43°18' E 028°35'1 2.6
2019-Sep-02 12:30N 43°17' E 028°34'2 3.9
2019-Sep-02 12:00N 43°16' E 028°32'7 1.3
2019-Sep-02 06:37N 43°10' E 028°29'1 5.8
2019-Sep-02 06:30N 43°10' E 028°30'3 5.6
2019-Sep-02 06:00N 43°09' E 028°34'1 1.1
2019-Sep-02 05:30N 43°10' E 028°34'1 3.0
2019-Sep-02 05:00N 43°10' E 028°36'2 3.2
2019-Sep-02 04:30N 43°09' E 028°38'0 0.9
2019-Sep-02 04:00N 43°10' E 028°38'2 3.3
2019-Sep-02 03:31N 43°10' E 028°36'2 4.3
2019-Sep-02 03:00N 43°09' E 028°33'2 4.1
2019-Sep-02 02:30N 43°09' E 028°30'0 0.9
2019-Sep-02 02:00N 43°09' E 028°30'1 1.4
2019-Sep-02 01:30N 43°10' E 028°31'1 1.3
2019-Sep-02 01:00N 43°10' E 028°32'1 1.2
2019-Sep-02 00:30N 43°10' E 028°32'1 1.2
2019-Sep-02 00:00N 43°11' E 028°33'1 1.2
2019-Sep-01 23:30N 43°11' E 028°34'1 1.2
2019-Sep-01 22:53N 43°12' E 028°35'0 1.2
2019-Sep-01 22:30N 43°12' E 028°35'1 1.2
2019-Sep-01 22:00N 43°12' E 028°36'1 1.2
2019-Sep-01 21:30N 43°13' E 028°36'1 1.2
2019-Sep-01 21:00N 43°13' E 028°37'1 2.4
2019-Sep-01 20:25N 43°13' E 028°35'2 3.8
2019-Sep-01 20:00N 43°12' E 028°33'2 3.8
2019-Sep-01 19:30N 43°11' E 028°31'2 3.9
2019-Sep-01 19:00N 43°10' E 028°29'2 3.9
2019-Sep-01 18:30N 43°09' E 028°27'2 3.9
2019-Sep-01 18:00N 43°08' E 028°25'2 3.8
2019-Sep-01 17:31N 43°07' E 028°22'2 3.7
2019-Sep-01 17:00N 43°06' E 028°20'2 3.5
2019-Sep-01 16:30N 43°05' E 028°18'2 3.8
2019-Sep-01 16:00N 43°05' E 028°15'2 3.3
2019-Sep-01 15:30N 43°05' E 028°13'11 2.3
2019-Sep-01 10:44N 43°03' E 028°28'19 2.5
2019-Sep-01 03:17N 42°49' E 028°11'13 3.7
2019-Aug-31 23:46N 42°40' E 027°58'1 4.2
2019-Aug-31 23:30N 42°39' E 027°58'24 0.5
2019-Aug-29 21:05N 42°17' E 027°48'0 0.0
2019-Aug-29 20:56N 42°17' E 027°48'0 0.0
2019-Aug-29 19:26N 42°17' E 027°48'24 1.1
2019-Aug-28 20:45N 42°19' E 028°20'0 1.1
2019-Aug-28 20:22N 42°19' E 028°21'0 1.1
2019-Aug-28 19:58N 42°20' E 028°21'4 1.8
2019-Aug-28 17:58N 42°16' E 028°20'0 0.8
2019-Aug-28 17:30N 42°17' E 028°20'1 1.0
2019-Aug-28 17:00N 42°17' E 028°20'2 4.1
2019-Aug-28 16:30N 42°17' E 028°17'19 1.5
2019-Aug-28 03:43N 42°17' E 027°51'1 3.7
2019-Aug-28 03:30N 42°17' E 027°50'2 0.3
2019-Aug-27 20:11N 42°17' E 027°47'0 0.0
2019-Aug-27 19:59N 42°17' E 027°47'0 0.0
2019-Aug-27 19:26N 42°17' E 027°47'0 0.0
2019-Aug-27 18:59N 42°17' E 027°47'0 0.0
2019-Aug-27 18:29N 42°17' E 027°47'0 0.0
2019-Aug-27 17:56N 42°17' E 027°47'0 0.0
2019-Aug-27 17:29N 42°17' E 027°47'  

Dump ship's entire track history